createdAt,value
2023-03-22T00:01:31.261Z,99702.53
2023-03-22T00:05:33.164Z,99696.44
2023-03-22T00:09:34.925Z,99689.59
2023-03-22T00:13:39.890Z,99682.41
2023-03-22T00:17:42.477Z,99690.81
2023-03-22T00:21:44.853Z,99696.53
2023-03-22T00:25:47.102Z,99681.75
2023-03-22T00:29:48.970Z,99682.13
2023-03-22T00:33:50.870Z,99676.44
2023-03-22T00:37:52.810Z,99676.59
2023-03-22T00:41:54.759Z,99657.75
2023-03-22T00:45:56.622Z,99665.63
2023-03-22T00:49:58.578Z,99645.63
2023-03-22T00:54:00.804Z,99648.41
2023-03-22T00:58:02.592Z,99659.88
2023-03-22T01:02:05.607Z,99645.31
2023-03-22T01:06:08.425Z,99664.81
2023-03-22T01:10:11.422Z,99660.09
2023-03-22T01:14:13.972Z,99657.44
2023-03-22T01:18:15.938Z,99655.97
2023-03-22T01:22:17.744Z,99644.19
2023-03-22T01:26:19.572Z,99657.63
2023-03-22T01:30:22.527Z,99645.50
2023-03-22T01:34:24.420Z,99628.47
2023-03-22T01:38:26.430Z,99631.06
2023-03-22T01:42:28.541Z,99630.44
2023-03-22T01:46:30.535Z,99630.59
2023-03-22T01:50:32.534Z,99619.28
2023-03-22T01:54:42.899Z,99624.81
2023-03-22T01:58:44.702Z,99608.75
2023-03-22T02:02:49.365Z,99625.28
2023-03-22T02:06:54.425Z,99625.56
2023-03-22T02:10:56.241Z,99621.25
2023-03-22T02:15:27.932Z,99616.19
2023-03-22T02:19:45.649Z,99634.50
2023-03-22T02:25:00.590Z,99625.03
2023-03-22T02:29:13.958Z,99633.00
2023-03-22T02:33:35.866Z,99627.22
2023-03-22T02:37:59.230Z,99622.94
2023-03-22T02:42:17.526Z,99627.16
2023-03-22T02:46:37.859Z,99626.34
2023-03-22T02:50:46.598Z,99624.09
2023-03-22T02:54:56.226Z,99628.16
2023-03-22T02:59:01.191Z,99615.31
2023-03-22T03:03:21.861Z,99611.47
2023-03-22T03:07:32.782Z,99609.50
2023-03-22T03:11:40.845Z,99619.91
2023-03-22T03:16:03.149Z,99623.19
2023-03-22T03:20:55.765Z,99610.50
2023-03-22T03:25:19.788Z,99619.13
2023-03-22T03:29:36.075Z,99622.53
2023-03-22T03:33:44.237Z,99621.25
2023-03-22T03:37:49.588Z,99610.91
2023-03-22T03:41:51.518Z,99605.94
2023-03-22T03:45:54.845Z,99589.19
2023-03-22T03:49:56.965Z,99606.88
2023-03-22T03:53:58.886Z,99590.69
2023-03-22T03:58:00.775Z,99601.56
2023-03-22T04:02:02.747Z,99598.28
2023-03-22T04:06:05.068Z,99595.38
2023-03-22T04:10:07.854Z,99592.56
2023-03-22T04:14:09.769Z,99595.00
2023-03-22T04:18:11.580Z,99596.94
2023-03-22T04:22:14.890Z,99594.63
2023-03-22T04:26:16.784Z,99587.19
2023-03-22T04:30:23.044Z,99583.88
2023-03-22T04:34:24.858Z,99584.34
2023-03-22T04:38:26.667Z,99587.63
2023-03-22T04:42:28.715Z,99585.91
2023-03-22T04:46:31.511Z,99583.38
2023-03-22T04:50:33.482Z,99579.25
2023-03-22T04:54:35.356Z,99583.38
2023-03-22T04:58:42.131Z,99588.91
2023-03-22T05:02:44.158Z,99575.63
2023-03-22T05:06:46.616Z,99591.94
2023-03-22T05:10:52.456Z,99591.44
2023-03-22T05:14:59.836Z,99586.44
2023-03-22T05:19:02.528Z,99584.88
2023-03-22T05:23:07.174Z,99578.78
2023-03-22T05:27:11.058Z,99588.69
2023-03-22T05:31:15.704Z,99581.22
2023-03-22T05:35:20.816Z,99580.41
2023-03-22T05:39:25.566Z,99573.66
2023-03-22T05:43:29.972Z,99575.00
2023-03-22T05:47:31.899Z,99576.34
2023-03-22T05:51:35.255Z,99564.97
2023-03-22T05:55:59.056Z,99568.38
2023-03-22T06:00:01.936Z,99552.44
2023-03-22T06:04:10.133Z,99553.78
2023-03-22T06:08:18.467Z,99577.03
2023-03-22T06:12:40.590Z,99566.50
2023-03-22T06:16:43.156Z,99573.75
2023-03-22T06:20:45.034Z,99557.25
2023-03-22T06:24:47.748Z,99549.38
2023-03-22T06:28:49.610Z,99541.63
2023-03-22T06:32:51.607Z,99556.00
2023-03-22T06:36:53.589Z,99549.13
2023-03-22T06:40:55.669Z,99546.16
2023-03-22T06:44:57.854Z,99563.63
2023-03-22T06:48:59.792Z,99572.25
2023-03-22T06:53:01.698Z,99545.63
2023-03-22T06:57:04.006Z,99545.50
2023-03-22T07:01:06.210Z,99560.56
2023-03-22T07:05:08.731Z,99557.88
2023-03-22T07:09:10.730Z,99545.13
2023-03-22T07:13:12.594Z,99536.63
2023-03-22T07:17:14.482Z,99541.91
2023-03-22T07:21:16.374Z,99546.81
2023-03-22T07:25:20.963Z,99551.94
2023-03-22T07:29:37.724Z,99553.75
2023-03-22T07:33:42.494Z,99554.28
2023-03-22T07:37:45.019Z,99548.59
2023-03-22T07:41:47.119Z,99536.13
2023-03-22T07:45:50.013Z,99536.53
2023-03-22T07:49:51.813Z,99540.00
2023-03-22T07:53:53.666Z,99530.03
2023-03-22T07:57:56.462Z,99530.81
2023-03-22T08:01:58.473Z,99529.13
2023-03-22T08:06:06.545Z,99521.72
2023-03-22T08:10:09.169Z,99523.38
2023-03-22T08:14:11.285Z,99526.13
2023-03-22T08:18:13.292Z,99525.13
2023-03-22T08:22:15.485Z,99516.16
2023-03-22T08:26:17.939Z,99518.78
2023-03-22T08:30:22.431Z,99522.06
2023-03-22T08:34:24.452Z,99522.25
2023-03-22T08:38:26.319Z,99506.59
2023-03-22T08:42:28.252Z,99510.19
2023-03-22T08:46:30.138Z,99501.03
2023-03-22T08:50:34.566Z,99499.66
2023-03-22T08:54:41.675Z,99505.56
2023-03-22T08:58:46.717Z,99503.13
2023-03-22T09:02:51.274Z,99513.50
2023-03-22T09:06:53.088Z,99510.75
2023-03-22T09:10:55.079Z,99490.69
2023-03-22T09:14:57.056Z,99494.16
2023-03-22T09:18:58.937Z,99486.34
2023-03-22T09:23:00.729Z,99485.16
2023-03-22T09:27:03.408Z,99479.63
2023-03-22T09:31:08.073Z,99471.72
2023-03-22T09:35:10.107Z,99473.13
2023-03-22T09:39:12.959Z,99461.81
2023-03-22T09:43:14.739Z,99454.06
2023-03-22T09:47:43.856Z,99444.63
2023-03-22T09:51:51.084Z,99452.53
2023-03-22T09:56:06.297Z,99441.06
2023-03-22T10:00:22.287Z,99430.19
2023-03-22T10:04:30.124Z,99437.69
2023-03-22T10:09:00.248Z,99424.44
2023-03-22T10:13:48.422Z,99428.44
2023-03-22T10:17:53.645Z,99424.97
2023-03-22T10:21:55.870Z,99428.75
2023-03-22T10:26:01.153Z,99413.22
2023-03-22T10:30:28.358Z,99406.78
2023-03-22T10:34:33.956Z,99416.81
2023-03-22T10:38:44.956Z,99393.53
2023-03-22T10:42:54.456Z,99405.13
2023-03-22T10:46:57.303Z,99400.16
2023-03-22T10:51:04.830Z,99396.69
2023-03-22T10:55:11.855Z,99384.41
2023-03-22T10:59:43.504Z,99383.69
2023-03-22T11:03:52.060Z,99395.16
2023-03-22T11:07:54.094Z,99380.09
2023-03-22T11:12:00.137Z,99381.88
2023-03-22T11:16:02.668Z,99376.84
2023-03-22T11:20:12.364Z,99364.63
2023-03-22T11:24:16.542Z,99342.69
2023-03-22T11:28:26.916Z,99346.84
2023-03-22T11:32:32.908Z,99341.84
2023-03-22T11:36:43.890Z,99329.44
2023-03-22T11:40:52.769Z,99322.84
2023-03-22T11:44:55.593Z,99303.81
2023-03-22T11:49:03.366Z,99298.34
2023-03-22T11:53:08.967Z,99306.47
2023-03-22T11:57:17.497Z,99291.00
2023-03-22T12:01:58.648Z,99293.66
2023-03-22T12:06:05.903Z,99282.31
2023-03-22T12:10:21.812Z,99276.91
2023-03-22T12:14:41.216Z,99282.47
2023-03-22T12:19:36.652Z,99272.38
2023-03-22T12:23:38.615Z,99253.59
2023-03-22T12:27:43.107Z,99274.31
2023-03-22T12:32:08.672Z,99244.47
2023-03-22T12:36:13.903Z,99249.00
2023-03-22T12:40:28.699Z,99251.25
2023-03-22T12:44:38.441Z,99248.97
2023-03-22T12:48:53.318Z,99239.75
2023-03-22T12:52:57.052Z,99243.19
2023-03-22T12:56:59.132Z,99224.34
2023-03-22T13:01:19.643Z,99214.97
2023-03-22T13:05:21.840Z,99239.00
2023-03-22T13:09:29.475Z,99229.56
2023-03-22T13:13:49.490Z,99241.25
2023-03-22T13:17:51.419Z,99224.75
2023-03-22T13:22:17.959Z,99216.28
2023-03-22T13:26:20.284Z,99203.88
2023-03-22T13:30:32.799Z,99208.22
2023-03-22T13:34:49.221Z,99220.03
2023-03-22T13:39:04.739Z,99195.88
2023-03-22T13:43:27.811Z,99201.38
2023-03-22T13:47:43.182Z,99184.53
2023-03-22T13:51:45.478Z,99186.53
2023-03-22T13:55:58.921Z,99173.50
2023-03-22T14:00:22.368Z,99170.72
2023-03-22T14:04:30.290Z,99171.66
2023-03-22T14:08:36.111Z,99176.88
2023-03-22T14:13:21.224Z,99162.53
2023-03-22T14:17:41.225Z,99164.88
